Time,TemperatureF,DewpointF,PressureIn,WindDirection,WindDirectionDegrees,WindSpeedMPH,WindSpeedGustMPH,Humidity,HourlyPrecipIn,Conditions,Clouds,dailyrainin,SolarRadiationWatts/m^2,SoftwareType,DateUTC
2013-02-15 03:00:00,43.6,42.0,30.22,ESE,105,0.0,0.0,94,0.00,,,0.00,0,weatherlink.com 1.10,2013-02-15 11:00:00,
2013-02-15 03:05:00,43.8,42.0,30.22,ESE,105,0.0,0.0,94,0.00,,,0.00,0,weatherlink.com 1.10,2013-02-15 11:05:00,
2013-02-15 03:20:00,44.6,43.0,30.22,ESE,105,0.0,0.0,95,0.00,,,0.00,0,weatherlink.com 1.10,2013-02-15 11:20:00,
2013-02-15 03:35:00,43.5,42.0,30.22,ESE,105,0.0,0.0,94,0.00,,,0.00,0,weatherlink.com 1.10,2013-02-15 11:35:00,
2013-02-15 03:50:00,44.3,43.0,30.21,ESE,115,0.0,2.0,95,0.00,,,0.00,0,weatherlink.com 1.10,2013-02-15 11:50:00,
2013-02-15 04:05:00,44.4,43.0,30.21,ESE,115,2.0,3.0,95,0.00,,,0.00,0,weatherlink.com 1.10,2013-02-15 12:05:00,
2013-02-15 04:20:00,43.9,42.0,30.21,ESE,121,0.0,6.0,94,0.00,,,0.00,0,weatherlink.com 1.10,2013-02-15 12:20:00,
2013-02-15 04:35:00,44.0,43.0,30.22,ESE,120,0.0,2.0,95,0.00,,,0.00,0,weatherlink.com 1.10,2013-02-15 12:35:00,
2013-02-15 04:50:00,44.7,43.0,30.22,ESE,120,0.0,2.0,95,0.00,,,0.00,0,weatherlink.com 1.10,2013-02-15 12:50:00,
2013-02-15 05:05:00,44.2,43.0,30.22,ESE,120,0.0,0.0,95,0.00,,,0.00,0,weatherlink.com 1.10,2013-02-15 13:05:00,
2013-02-15 05:20:00,44.7,44.0,30.22,ESE,120,0.0,0.0,96,0.00,,,0.00,0,weatherlink.com 1.10,2013-02-15 13:20:00,
2013-02-15 05:35:00,44.4,43.0,30.22,ESE,121,0.0,0.0,96,0.00,,,0.00,0,weatherlink.com 1.10,2013-02-15 13:35:00,
2013-02-15 05:50:00,44.7,44.0,30.23,ESE,120,0.0,0.0,97,0.00,,,0.00,0,weatherlink.com 1.10,2013-02-15 13:50:00,
2013-02-15 06:05:00,43.8,43.0,30.23,ESE,118,0.0,2.0,97,0.00,,,0.00,0,weatherlink.com 1.10,2013-02-15 14:05:00,
2013-02-15 06:20:00,45.9,45.0,30.23,East,91,7.0,8.0,97,0.00,,,0.00,0,weatherlink.com 1.10,2013-02-15 14:20:00,
2013-02-15 06:36:00,47.2,45.0,30.23,SE,126,0.0,4.0,90,0.00,,,0.00,0,weatherlink.com 1.10,2013-02-15 14:36:00,
2013-02-15 06:51:00,45.9,44.0,30.23,SE,126,0.0,0.0,92,0.00,,,0.00,0,weatherlink.com 1.10,2013-02-15 14:51:00,
2013-02-15 07:06:00,46.1,44.0,30.23,ESE,104,2.0,4.0,93,0.00,,,0.00,7,weatherlink.com 1.10,2013-02-15 15:06:00,
2013-02-15 07:21:00,47.4,44.0,30.23,ESE,108,0.0,1.0,89,0.00,,,0.00,16,weatherlink.com 1.10,2013-02-15 15:21:00,
2013-02-15 07:36:00,47.7,45.0,30.24,ESE,113,0.0,0.0,89,0.00,,,0.00,21,weatherlink.com 1.10,2013-02-15 15:36:00,
2013-02-15 07:51:00,48.7,44.0,30.24,East,87,0.0,4.0,85,0.00,,,0.00,26,weatherlink.com 1.10,2013-02-15 15:51:00,
2013-02-15 08:06:00,53.0,44.0,30.24,ESE,103,1.0,5.0,72,0.00,,,0.00,155,weatherlink.com 1.10,2013-02-15 16:06:00,
2013-02-15 08:21:00,54.8,44.0,30.25,SE,126,2.0,6.0,68,0.00,,,0.00,206,weatherlink.com 1.10,2013-02-15 16:21:00,
2013-02-15 08:36:00,53.9,47.0,30.25,SE,132,0.0,4.0,77,0.00,,,0.00,258,weatherlink.com 1.10,2013-02-15 16:36:00,
2013-02-15 08:51:00,57.8,46.0,30.25,ESE,115,0.0,6.0,64,0.00,,,0.00,320,weatherlink.com 1.10,2013-02-15 16:51:00,
2013-02-15 09:06:00,57.7,49.0,30.25,NNE,22,5.0,5.0,72,0.00,,,0.00,364,weatherlink.com 1.10,2013-02-15 17:06:00,
2013-02-15 09:21:00,59.5,50.0,30.24,NNE,12,0.0,0.0,70,0.00,,,0.00,406,weatherlink.com 1.10,2013-02-15 17:21:00,
2013-02-15 09:36:00,60.0,50.0,30.24,ESE,121,5.0,5.0,70,0.00,,,0.00,454,weatherlink.com 1.10,2013-02-15 17:36:00,
2013-02-15 09:51:00,62.0,50.0,30.24,SE,131,3.0,6.0,64,0.00,,,0.00,489,weatherlink.com 1.10,2013-02-15 17:51:00,
2013-02-15 10:06:00,63.3,49.0,30.24,ESE,110,5.0,8.0,60,0.00,,,0.00,527,weatherlink.com 1.10,2013-02-15 18:06:00,
2013-02-15 10:21:00,64.8,49.0,30.24,SE,140,4.0,8.0,58,0.00,,,0.00,557,weatherlink.com 1.10,2013-02-15 18:21:00,
2013-02-15 10:36:00,65.8,46.0,30.24,East,92,4.0,6.0,50,0.00,,,0.00,587,weatherlink.com 1.10,2013-02-15 18:36:00,
2013-02-15 10:52:00,66.2,48.0,30.24,SSE,158,4.0,8.0,52,0.00,,,0.00,613,weatherlink.com 1.10,2013-02-15 18:52:00,
2013-02-15 11:07:00,68.2,46.0,30.24,ESE,122,7.0,11.0,45,0.00,,,0.00,636,weatherlink.com 1.10,2013-02-15 19:07:00,
2013-02-15 11:22:00,69.0,44.0,30.24,SE,136,2.0,8.0,41,0.00,,,0.00,652,weatherlink.com 1.10,2013-02-15 19:22:00,
2013-02-15 11:37:00,69.9,43.0,30.24,SE,133,5.0,8.0,38,0.00,,,0.00,668,weatherlink.com 1.10,2013-02-15 19:37:00,
2013-02-15 11:52:00,70.5,43.0,30.23,SE,139,2.0,8.0,37,0.00,,,0.00,677,weatherlink.com 1.10,2013-02-15 19:52:00,
2013-02-15 12:07:00,71.0,43.0,30.23,SE,127,7.0,10.0,37,0.00,,,0.00,684,weatherlink.com 1.10,2013-02-15 20:07:00,
2013-02-15 12:22:00,71.2,43.0,30.22,East,84,4.0,9.0,36,0.00,,,0.00,687,weatherlink.com 1.10,2013-02-15 20:22:00,
2013-02-15 12:37:00,71.3,44.0,30.22,ESE,121,7.0,10.0,37,0.00,,,0.00,686,weatherlink.com 1.10,2013-02-15 20:37:00,
2013-02-15 12:52:00,72.4,44.0,30.21,SE,130,6.0,9.0,36,0.00,,,0.00,679,weatherlink.com 1.10,2013-02-15 20:52:00,
2013-02-15 13:07:00,72.8,45.0,30.20,SE,130,4.0,8.0,37,0.00,,,0.00,670,weatherlink.com 1.10,2013-02-15 21:07:00,
2013-02-15 13:22:00,72.5,41.0,30.20,ENE,74,2.0,8.0,32,0.00,,,0.00,654,weatherlink.com 1.10,2013-02-15 21:22:00,
2013-02-15 13:37:00,73.0,43.0,30.20,ESE,105,7.0,8.0,34,0.00,,,0.00,636,weatherlink.com 1.10,2013-02-15 21:37:00,
2013-02-15 13:52:00,73.7,44.0,30.19,SE,128,7.0,8.0,35,0.00,,,0.00,615,weatherlink.com 1.10,2013-02-15 21:52:00,
2013-02-15 14:07:00,73.5,44.0,30.19,SE,130,4.0,8.0,35,0.00,,,0.00,589,weatherlink.com 1.10,2013-02-15 22:07:00,
2013-02-15 14:22:00,73.3,43.0,30.19,SE,142,4.0,10.0,34,0.00,,,0.00,563,weatherlink.com 1.10,2013-02-15 22:22:00,
2013-02-15 14:37:00,73.4,43.0,30.19,SE,137,2.0,8.0,33,0.00,,,0.00,529,weatherlink.com 1.10,2013-02-15 22:37:00,
2013-02-15 14:52:00,73.6,43.0,30.19,ESE,119,5.0,8.0,33,0.00,,,0.00,496,weatherlink.com 1.10,2013-02-15 22:52:00,
2013-02-15 15:22:00,72.9,44.0,30.20,East,80,4.0,8.0,35,0.00,,,0.00,417,weatherlink.com 1.10,2013-02-15 23:22:00,
2013-02-15 15:37:00,72.7,42.0,30.19,East,96,5.0,7.0,33,0.00,,,0.00,374,weatherlink.com 1.10,2013-02-15 23:37:00,
2013-02-15 15:52:00,72.1,43.0,30.19,East,94,1.0,7.0,35,0.00,,,0.00,330,weatherlink.com 1.10,2013-02-15 23:52:00,
2013-02-15 16:07:00,72.2,48.0,30.19,SE,126,1.0,6.0,43,0.00,,,0.00,283,weatherlink.com 1.10,2013-02-16 00:07:00,
2013-02-15 16:22:00,71.2,52.0,30.19,SSE,161,1.0,3.0,51,0.00,,,0.00,227,weatherlink.com 1.10,2013-02-16 00:22:00,
2013-02-15 16:37:00,70.7,53.0,30.19,SSE,162,0.0,4.0,53,0.00,,,0.00,169,weatherlink.com 1.10,2013-02-16 00:37:00,
2013-02-15 16:52:00,69.4,51.0,30.19,SSE,166,0.0,4.0,52,0.00,,,0.00,111,weatherlink.com 1.10,2013-02-16 00:52:00,
2013-02-15 17:07:00,68.3,51.0,30.20,SSE,166,0.0,1.0,54,0.00,,,0.00,63,weatherlink.com 1.10,2013-02-16 01:07:00,
2013-02-15 17:22:00,66.0,50.0,30.20,WSW,256,0.0,4.0,56,0.00,,,0.00,28,weatherlink.com 1.10,2013-02-16 01:22:00,
2013-02-15 17:37:00,62.8,49.0,30.20,East,86,0.0,4.0,62,0.00,,,0.00,14,weatherlink.com 1.10,2013-02-16 01:37:00,
2013-02-15 17:52:00,60.7,48.0,30.20,East,86,0.0,1.0,64,0.00,,,0.00,5,weatherlink.com 1.10,2013-02-16 01:52:00,
2013-02-15 18:07:00,60.5,49.0,30.20,East,101,0.0,0.0,67,0.00,,,0.00,0,weatherlink.com 1.10,2013-02-16 02:07:00,
2013-02-15 18:22:00,57.5,49.0,30.20,East,101,0.0,0.0,73,0.00,,,0.00,0,weatherlink.com 1.10,2013-02-16 02:22:00,
2013-02-15 18:37:00,56.9,49.0,30.21,East,101,0.0,0.0,75,0.00,,,0.00,0,weatherlink.com 1.10,2013-02-16 02:37:00,
2013-02-15 18:52:00,56.6,50.0,30.21,East,101,0.0,0.0,78,0.00,,,0.00,0,weatherlink.com 1.10,2013-02-16 02:52:00,
2013-02-15 19:07:00,55.3,49.0,30.21,ESE,102,0.0,0.0,78,0.00,,,0.00,0,weatherlink.com 1.10,2013-02-16 03:07:00,
2013-02-15 19:22:00,54.9,49.0,30.22,East,101,0.0,0.0,79,0.00,,,0.00,0,weatherlink.com 1.10,2013-02-16 03:22:00,
2013-02-15 19:37:00,54.4,48.0,30.22,ESE,102,0.0,0.0,79,0.00,,,0.00,0,weatherlink.com 1.10,2013-02-16 03:37:00,
2013-02-15 19:52:00,53.6,47.0,30.22,East,101,0.0,0.0,78,0.00,,,0.00,0,weatherlink.com 1.10,2013-02-16 03:52:00,
2013-02-15 20:07:00,52.7,46.0,30.22,East,97,0.0,0.0,77,0.00,,,0.00,0,weatherlink.com 1.10,2013-02-16 04:07:00,
2013-02-15 20:22:00,52.4,46.0,30.23,East,97,0.0,0.0,78,0.00,,,0.00,0,weatherlink.com 1.10,2013-02-16 04:22:00,
2013-02-15 20:37:00,51.8,46.0,30.23,East,96,0.0,4.0,79,0.00,,,0.00,0,weatherlink.com 1.10,2013-02-16 04:37:00,
2013-02-15 20:52:00,52.0,46.0,30.23,ESE,102,0.0,0.0,80,0.00,,,0.00,0,weatherlink.com 1.10,2013-02-16 04:52:00,
2013-02-15 21:07:00,50.3,45.0,30.23,ESE,102,0.0,0.0,81,0.00,,,0.00,0,weatherlink.com 1.10,2013-02-16 05:07:00,
2013-02-15 21:22:00,50.9,46.0,30.24,ESE,102,0.0,1.0,84,0.00,,,0.00,0,weatherlink.com 1.10,2013-02-16 05:22:00,
2013-02-15 21:37:00,50.0,45.0,30.24,ESE,102,0.0,0.0,84,0.00,,,0.00,0,weatherlink.com 1.10,2013-02-16 05:37:00,
2013-02-15 21:52:00,49.3,45.0,30.24,ESE,102,0.0,0.0,85,0.00,,,0.00,0,weatherlink.com 1.10,2013-02-16 05:52:00,
2013-02-15 22:07:00,49.6,46.0,30.25,ESE,102,0.0,0.0,86,0.00,,,0.00,0,weatherlink.com 1.10,2013-02-16 06:07:00,
2013-02-15 22:22:00,48.3,44.0,30.24,ESE,102,0.0,0.0,86,0.00,,,0.00,0,weatherlink.com 1.10,2013-02-16 06:22:00,
2013-02-15 22:37:00,47.9,44.0,30.24,ESE,102,0.0,0.0,86,0.00,,,0.00,0,weatherlink.com 1.10,2013-02-16 06:37:00,
2013-02-15 22:52:00,48.4,45.0,30.24,ESE,102,0.0,1.0,87,0.00,,,0.00,0,weatherlink.com 1.10,2013-02-16 06:52:00,
2013-02-15 23:07:00,48.8,45.0,30.24,ESE,102,0.0,1.0,87,0.00,,,0.00,0,weatherlink.com 1.10,2013-02-16 07:07:00,
2013-02-15 23:22:00,47.8,44.0,30.25,ESE,102,0.0,1.0,87,0.00,,,0.00,0,weatherlink.com 1.10,2013-02-16 07:22:00,
2013-02-15 23:37:00,47.6,44.0,30.25,ESE,102,0.0,1.0,87,0.00,,,0.00,0,weatherlink.com 1.10,2013-02-16 07:37:00,
2013-02-15 23:52:00,47.5,44.0,30.24,ESE,102,0.0,1.0,87,0.00,,,0.00,0,weatherlink.com 1.10,2013-02-16 07:52:00,